sensor_id;sensor_type;location;lat;lon;timestamp;temperature;humidity
47590;DHT22;33316;52.298;9.056;2022-08-19T00:00:05;22.30;68.10
47590;DHT22;33316;52.298;9.056;2022-08-19T00:02:32;22.30;68.10
47590;DHT22;33316;52.298;9.056;2022-08-19T00:04:58;22.30;68.10
47590;DHT22;33316;52.298;9.056;2022-08-19T00:07:24;22.30;68.10
47590;DHT22;33316;52.298;9.056;2022-08-19T00:09:49;22.40;68.20
47590;DHT22;33316;52.298;9.056;2022-08-19T00:12:15;22.40;68.20
47590;DHT22;33316;52.298;9.056;2022-08-19T00:14:41;22.40;68.10
47590;DHT22;33316;52.298;9.056;2022-08-19T00:17:07;22.40;68.20
47590;DHT22;33316;52.298;9.056;2022-08-19T00:19:34;22.40;68.20
47590;DHT22;33316;52.298;9.056;2022-08-19T00:22:00;22.40;68.20
47590;DHT22;33316;52.298;9.056;2022-08-19T00:24:28;22.40;68.20
47590;DHT22;33316;52.298;9.056;2022-08-19T00:26:54;22.40;68.30
47590;DHT22;33316;52.298;9.056;2022-08-19T00:29:22;22.40;68.20
47590;DHT22;33316;52.298;9.056;2022-08-19T00:31:49;22.40;68.30
47590;DHT22;33316;52.298;9.056;2022-08-19T00:34:18;22.40;68.30
47590;DHT22;33316;52.298;9.056;2022-08-19T00:36:44;22.40;68.20
47590;DHT22;33316;52.298;9.056;2022-08-19T00:39:11;22.40;68.20
47590;DHT22;33316;52.298;9.056;2022-08-19T00:41:38;22.30;68.10
47590;DHT22;33316;52.298;9.056;2022-08-19T00:44:22;22.40;69.10
47590;DHT22;33316;52.298;9.056;2022-08-19T00:46:50;22.40;68.50
47590;DHT22;33316;52.298;9.056;2022-08-19T00:49:20;22.30;68.40
47590;DHT22;33316;52.298;9.056;2022-08-19T00:51:51;22.40;68.50
47590;DHT22;33316;52.298;9.056;2022-08-19T00:54:19;22.40;68.60
47590;DHT22;33316;52.298;9.056;2022-08-19T00:56:45;22.30;68.60
47590;DHT22;33316;52.298;9.056;2022-08-19T00:59:11;22.30;68.80
47590;DHT22;33316;52.298;9.056;2022-08-19T01:01:42;22.30;68.90
47590;DHT22;33316;52.298;9.056;2022-08-19T01:04:08;22.30;69.00
47590;DHT22;33316;52.298;9.056;2022-08-19T01:06:35;22.30;69.30
47590;DHT22;33316;52.298;9.056;2022-08-19T01:09:02;22.20;68.80
47590;DHT22;33316;52.298;9.056;2022-08-19T01:11:30;22.20;68.90
47590;DHT22;33316;52.298;9.056;2022-08-19T01:13:57;22.20;69.00
47590;DHT22;33316;52.298;9.056;2022-08-19T01:16:25;22.20;69.00
47590;DHT22;33316;52.298;9.056;2022-08-19T01:18:52;22.10;69.10
47590;DHT22;33316;52.298;9.056;2022-08-19T01:21:40;22.10;69.20
47590;DHT22;33316;52.298;9.056;2022-08-19T01:24:04;22.10;69.20
47590;DHT22;33316;52.298;9.056;2022-08-19T01:26:30;22.10;69.20
47590;DHT22;33316;52.298;9.056;2022-08-19T01:28:58;22.00;69.20
47590;DHT22;33316;52.298;9.056;2022-08-19T01:31:26;22.10;69.40
47590;DHT22;33316;52.298;9.056;2022-08-19T01:33:53;22.00;69.30
47590;DHT22;33316;52.298;9.056;2022-08-19T01:36:27;22.00;69.30
47590;DHT22;33316;52.298;9.056;2022-08-19T01:38:53;22.00;69.20
47590;DHT22;33316;52.298;9.056;2022-08-19T01:41:19;21.90;69.20
47590;DHT22;33316;52.298;9.056;2022-08-19T01:43:44;21.90;69.20
47590;DHT22;33316;52.298;9.056;2022-08-19T01:46:10;21.90;69.30
47590;DHT22;33316;52.298;9.056;2022-08-19T01:48:41;21.90;69.30
47590;DHT22;33316;52.298;9.056;2022-08-19T01:51:07;21.80;69.40
47590;DHT22;33316;52.298;9.056;2022-08-19T01:53:33;21.80;69.60
47590;DHT22;33316;52.298;9.056;2022-08-19T01:56:00;21.80;69.20
47590;DHT22;33316;52.298;9.056;2022-08-19T01:58:38;21.80;69.40
47590;DHT22;33316;52.298;9.056;2022-08-19T02:01:06;21.80;69.50
47590;DHT22;33316;52.298;9.056;2022-08-19T02:03:32;21.80;69.40
47590;DHT22;33316;52.298;9.056;2022-08-19T02:06:02;21.70;69.40
47590;DHT22;33316;52.298;9.056;2022-08-19T02:08:31;21.70;69.40
47590;DHT22;33316;52.298;9.056;2022-08-19T02:10:58;21.70;69.50
47590;DHT22;33316;52.298;9.056;2022-08-19T02:13:25;21.60;69.50
47590;DHT22;33316;52.298;9.056;2022-08-19T02:15:51;21.60;69.60
47590;DHT22;33316;52.298;9.056;2022-08-19T02:18:17;21.60;69.80
47590;DHT22;33316;52.298;9.056;2022-08-19T02:20:43;21.50;69.80
47590;DHT22;33316;52.298;9.056;2022-08-19T02:23:10;21.50;70.00
47590;DHT22;33316;52.298;9.056;2022-08-19T02:25:36;21.50;70.00
47590;DHT22;33316;52.298;9.056;2022-08-19T02:28:02;21.50;70.10
47590;DHT22;33316;52.298;9.056;2022-08-19T02:30:28;21.40;70.20
47590;DHT22;33316;52.298;9.056;2022-08-19T02:32:54;21.40;71.10
47590;DHT22;33316;52.298;9.056;2022-08-19T02:35:20;21.40;70.30
47590;DHT22;33316;52.298;9.056;2022-08-19T02:37:45;21.40;70.30
47590;DHT22;33316;52.298;9.056;2022-08-19T02:40:31;21.40;70.40
47590;DHT22;33316;52.298;9.056;2022-08-19T02:43:03;21.40;70.40
47590;DHT22;33316;52.298;9.056;2022-08-19T02:45:34;21.40;70.40
47590;DHT22;33316;52.298;9.056;2022-08-19T02:48:00;21.30;70.50
47590;DHT22;33316;52.298;9.056;2022-08-19T02:50:26;21.30;70.50
47590;DHT22;33316;52.298;9.056;2022-08-19T02:52:51;21.30;70.60
47590;DHT22;33316;52.298;9.056;2022-08-19T02:55:17;21.20;70.60
47590;DHT22;33316;52.298;9.056;2022-08-19T02:57:42;21.20;70.60
47590;DHT22;33316;52.298;9.056;2022-08-19T03:00:08;21.20;70.80
47590;DHT22;33316;52.298;9.056;2022-08-19T03:02:38;21.20;70.90
47590;DHT22;33316;52.298;9.056;2022-08-19T03:05:05;21.10;70.90
47590;DHT22;33316;52.298;9.056;2022-08-19T03:07:31;21.10;70.90
47590;DHT22;33316;52.298;9.056;2022-08-19T03:09:57;21.10;70.90
47590;DHT22;33316;52.298;9.056;2022-08-19T03:12:23;21.10;70.90
47590;DHT22;33316;52.298;9.056;2022-08-19T03:14:48;21.10;71.00
47590;DHT22;33316;52.298;9.056;2022-08-19T03:17:14;21.00;70.90
47590;DHT22;33316;52.298;9.056;2022-08-19T03:19:39;21.00;71.00
47590;DHT22;33316;52.298;9.056;2022-08-19T03:22:05;20.90;71.00
47590;DHT22;33316;52.298;9.056;2022-08-19T03:24:31;20.90;71.10
47590;DHT22;33316;52.298;9.056;2022-08-19T03:26:57;20.90;71.20
47590;DHT22;33316;52.298;9.056;2022-08-19T03:29:25;20.90;71.20
47590;DHT22;33316;52.298;9.056;2022-08-19T03:31:52;20.90;71.30
47590;DHT22;33316;52.298;9.056;2022-08-19T03:34:21;20.80;71.30
47590;DHT22;33316;52.298;9.056;2022-08-19T03:36:47;20.80;71.40
47590;DHT22;33316;52.298;9.056;2022-08-19T03:39:13;20.80;71.40
47590;DHT22;33316;52.298;9.056;2022-08-19T03:41:41;20.80;71.50
47590;DHT22;33316;52.298;9.056;2022-08-19T03:44:07;20.80;71.50
47590;DHT22;33316;52.298;9.056;2022-08-19T03:46:34;20.80;71.60
47590;DHT22;33316;52.298;9.056;2022-08-19T03:49:02;20.80;71.60
47590;DHT22;33316;52.298;9.056;2022-08-19T03:51:32;20.70;71.70
47590;DHT22;33316;52.298;9.056;2022-08-19T03:54:00;20.70;71.70
47590;DHT22;33316;52.298;9.056;2022-08-19T03:56:26;20.70;71.80
47590;DHT22;33316;52.298;9.056;2022-08-19T03:58:54;20.60;71.90
47590;DHT22;33316;52.298;9.056;2022-08-19T04:01:21;20.60;72.00
47590;DHT22;33316;52.298;9.056;2022-08-19T04:03:47;20.60;72.10
47590;DHT22;33316;52.298;9.056;2022-08-19T04:06:16;20.60;72.20
47590;DHT22;33316;52.298;9.056;2022-08-19T04:08:43;20.50;72.20
47590;DHT22;33316;52.298;9.056;2022-08-19T04:11:11;20.50;72.20
47590;DHT22;33316;52.298;9.056;2022-08-19T04:13:37;20.50;72.20
47590;DHT22;33316;52.298;9.056;2022-08-19T04:16:04;20.50;72.30
47590;DHT22;33316;52.298;9.056;2022-08-19T04:18:31;20.50;72.40
47590;DHT22;33316;52.298;9.056;2022-08-19T04:20:58;20.50;72.50
47590;DHT22;33316;52.298;9.056;2022-08-19T04:23:24;20.50;72.50
47590;DHT22;33316;52.298;9.056;2022-08-19T04:25:50;20.50;72.50
47590;DHT22;33316;52.298;9.056;2022-08-19T04:28:16;20.50;72.50
47590;DHT22;33316;52.298;9.056;2022-08-19T04:30:47;20.50;72.50
47590;DHT22;33316;52.298;9.056;2022-08-19T04:33:15;20.50;72.50
47590;DHT22;33316;52.298;9.056;2022-08-19T04:35:45;20.50;72.50
47590;DHT22;33316;52.298;9.056;2022-08-19T04:38:12;20.50;72.50
47590;DHT22;33316;52.298;9.056;2022-08-19T04:40:42;20.50;72.60
47590;DHT22;33316;52.298;9.056;2022-08-19T04:43:27;20.40;72.60
47590;DHT22;33316;52.298;9.056;2022-08-19T04:45:53;20.50;72.70
47590;DHT22;33316;52.298;9.056;2022-08-19T04:48:19;20.40;72.70
47590;DHT22;33316;52.298;9.056;2022-08-19T04:50:51;20.40;72.80
47590;DHT22;33316;52.298;9.056;2022-08-19T04:53:22;20.40;72.80
47590;DHT22;33316;52.298;9.056;2022-08-19T04:55:47;20.40;72.80
47590;DHT22;33316;52.298;9.056;2022-08-19T04:58:13;20.40;72.90
47590;DHT22;33316;52.298;9.056;2022-08-19T05:00:39;20.50;72.90
47590;DHT22;33316;52.298;9.056;2022-08-19T05:03:05;20.40;72.90
47590;DHT22;33316;52.298;9.056;2022-08-19T05:05:30;20.40;72.90
47590;DHT22;33316;52.298;9.056;2022-08-19T05:07:56;20.50;73.00
47590;DHT22;33316;52.298;9.056;2022-08-19T05:10:22;20.50;73.10
47590;DHT22;33316;52.298;9.056;2022-08-19T05:12:48;20.50;73.10
47590;DHT22;33316;52.298;9.056;2022-08-19T05:15:13;20.50;73.10
47590;DHT22;33316;52.298;9.056;2022-08-19T05:17:39;20.50;73.10
47590;DHT22;33316;52.298;9.056;2022-08-19T05:20:24;20.50;73.10
47590;DHT22;33316;52.298;9.056;2022-08-19T05:23:11;20.50;73.20
47590;DHT22;33316;52.298;9.056;2022-08-19T05:25:39;20.50;73.20
47590;DHT22;33316;52.298;9.056;2022-08-19T05:28:05;20.50;73.20
47590;DHT22;33316;52.298;9.056;2022-08-19T05:30:31;20.50;73.10
47590;DHT22;33316;52.298;9.056;2022-08-19T05:32:59;20.60;73.30
47590;DHT22;33316;52.298;9.056;2022-08-19T05:35:24;20.60;73.30
47590;DHT22;33316;52.298;9.056;2022-08-19T05:37:50;20.60;73.30
47590;DHT22;33316;52.298;9.056;2022-08-19T05:40:16;20.70;73.30
47590;DHT22;33316;52.298;9.056;2022-08-19T05:42:41;20.70;73.00
47590;DHT22;33316;52.298;9.056;2022-08-19T05:45:08;20.80;73.00
47590;DHT22;33316;52.298;9.056;2022-08-19T05:47:33;20.80;73.00
47590;DHT22;33316;52.298;9.056;2022-08-19T05:50:00;20.90;73.00
47590;DHT22;33316;52.298;9.056;2022-08-19T05:52:27;20.90;72.80
47590;DHT22;33316;52.298;9.056;2022-08-19T05:54:53;21.10;72.70
47590;DHT22;33316;52.298;9.056;2022-08-19T05:57:20;21.20;72.50
47590;DHT22;33316;52.298;9.056;2022-08-19T05:59:46;21.20;72.30
47590;DHT22;33316;52.298;9.056;2022-08-19T06:02:13;21.30;72.20
47590;DHT22;33316;52.298;9.056;2022-08-19T06:04:39;21.40;72.10
47590;DHT22;33316;52.298;9.056;2022-08-19T06:07:08;21.40;71.90
47590;DHT22;33316;52.298;9.056;2022-08-19T06:09:34;21.40;71.60
47590;DHT22;33316;52.298;9.056;2022-08-19T06:12:00;21.50;71.60
47590;DHT22;33316;52.298;9.056;2022-08-19T06:14:30;21.50;72.40
47590;DHT22;33316;52.298;9.056;2022-08-19T06:16:57;21.50;71.60
47590;DHT22;33316;52.298;9.056;2022-08-19T06:19:25;21.50;71.40
47590;DHT22;33316;52.298;9.056;2022-08-19T06:21:52;21.50;71.40
47590;DHT22;33316;52.298;9.056;2022-08-19T06:24:21;21.60;71.40
47590;DHT22;33316;52.298;9.056;2022-08-19T06:26:49;21.70;71.40
47590;DHT22;33316;52.298;9.056;2022-08-19T06:29:17;21.70;71.40
47590;DHT22;33316;52.298;9.056;2022-08-19T06:31:49;21.70;71.30
47590;DHT22;33316;52.298;9.056;2022-08-19T06:34:15;21.70;71.20
47590;DHT22;33316;52.298;9.056;2022-08-19T06:36:44;21.70;71.20
47590;DHT22;33316;52.298;9.056;2022-08-19T06:39:14;21.70;71.10
47590;DHT22;33316;52.298;9.056;2022-08-19T06:41:43;21.70;71.20
47590;DHT22;33316;52.298;9.056;2022-08-19T06:44:09;21.80;71.20
47590;DHT22;33316;52.298;9.056;2022-08-19T06:46:36;21.90;71.20
47590;DHT22;33316;52.298;9.056;2022-08-19T06:49:02;21.90;71.00
47590;DHT22;33316;52.298;9.056;2022-08-19T06:51:28;21.90;71.80
47590;DHT22;33316;52.298;9.056;2022-08-19T06:53:55;21.80;70.80
47590;DHT22;33316;52.298;9.056;2022-08-19T06:56:24;21.90;70.70
47590;DHT22;33316;52.298;9.056;2022-08-19T06:58:56;21.90;70.60
47590;DHT22;33316;52.298;9.056;2022-08-19T07:01:22;22.00;70.50
47590;DHT22;33316;52.298;9.056;2022-08-19T07:03:47;22.00;70.30
47590;DHT22;33316;52.298;9.056;2022-08-19T07:06:16;22.10;70.10
47590;DHT22;33316;52.298;9.056;2022-08-19T07:08:44;22.10;70.00
47590;DHT22;33316;52.298;9.056;2022-08-19T07:11:13;22.20;69.90
47590;DHT22;33316;52.298;9.056;2022-08-19T07:13:39;22.20;69.70
47590;DHT22;33316;52.298;9.056;2022-08-19T07:16:12;22.20;69.50
47590;DHT22;33316;52.298;9.056;2022-08-19T07:18:39;22.20;69.30
47590;DHT22;33316;52.298;9.056;2022-08-19T07:21:05;22.20;69.20
47590;DHT22;33316;52.298;9.056;2022-08-19T07:23:32;22.30;69.00
47590;DHT22;33316;52.298;9.056;2022-08-19T07:25:57;22.30;68.90
47590;DHT22;33316;52.298;9.056;2022-08-19T07:28:23;22.30;68.90
47590;DHT22;33316;52.298;9.056;2022-08-19T07:30:49;22.30;68.80
47590;DHT22;33316;52.298;9.056;2022-08-19T07:33:15;22.30;68.70
47590;DHT22;33316;52.298;9.056;2022-08-19T07:35:42;22.40;68.60
47590;DHT22;33316;52.298;9.056;2022-08-19T07:38:09;22.40;68.50
47590;DHT22;33316;52.298;9.056;2022-08-19T07:40:34;22.40;68.40
47590;DHT22;33316;52.298;9.056;2022-08-19T07:43:00;22.40;68.20
47590;DHT22;33316;52.298;9.056;2022-08-19T07:45:26;22.50;68.20
47590;DHT22;33316;52.298;9.056;2022-08-19T07:47:52;22.50;68.10
47590;DHT22;33316;52.298;9.056;2022-08-19T07:50:20;22.60;68.00
47590;DHT22;33316;52.298;9.056;2022-08-19T07:52:46;22.60;68.80
47590;DHT22;33316;52.298;9.056;2022-08-19T07:55:12;22.60;68.00
47590;DHT22;33316;52.298;9.056;2022-08-19T07:57:37;22.60;67.80
47590;DHT22;33316;52.298;9.056;2022-08-19T08:00:05;22.60;67.70
47590;DHT22;33316;52.298;9.056;2022-08-19T08:02:31;22.70;67.70
47590;DHT22;33316;52.298;9.056;2022-08-19T08:04:56;22.70;67.60
47590;DHT22;33316;52.298;9.056;2022-08-19T08:07:40;22.80;67.40
47590;DHT22;33316;52.298;9.056;2022-08-19T08:10:24;22.80;67.20
47590;DHT22;33316;52.298;9.056;2022-08-19T08:12:50;22.80;67.00
47590;DHT22;33316;52.298;9.056;2022-08-19T08:15:16;22.90;66.90
47590;DHT22;33316;52.298;9.056;2022-08-19T08:17:42;23.00;66.90
47590;DHT22;33316;52.298;9.056;2022-08-19T08:20:08;23.00;66.80
47590;DHT22;33316;52.298;9.056;2022-08-19T08:22:34;23.00;66.50
47590;DHT22;33316;52.298;9.056;2022-08-19T08:25:21;23.10;66.40
47590;DHT22;33316;52.298;9.056;2022-08-19T08:27:48;23.20;66.00
47590;DHT22;33316;52.298;9.056;2022-08-19T08:30:26;23.20;65.70
47590;DHT22;33316;52.298;9.056;2022-08-19T08:32:52;23.30;65.20
47590;DHT22;33316;52.298;9.056;2022-08-19T08:35:20;23.40;64.80
47590;DHT22;33316;52.298;9.056;2022-08-19T08:37:47;23.50;64.40
47590;DHT22;33316;52.298;9.056;2022-08-19T08:43:27;23.70;63.90
47590;DHT22;33316;52.298;9.056;2022-08-19T08:46:05;23.70;63.60
47590;DHT22;33316;52.298;9.056;2022-08-19T08:48:47;23.70;63.40
47590;DHT22;33316;52.298;9.056;2022-08-19T08:51:32;23.80;63.10
47590;DHT22;33316;52.298;9.056;2022-08-19T08:53:59;23.80;62.90
47590;DHT22;33316;52.298;9.056;2022-08-19T08:56:25;23.90;62.80
47590;DHT22;33316;52.298;9.056;2022-08-19T09:01:42;23.90;62.20
47590;DHT22;33316;52.298;9.056;2022-08-19T09:04:07;24.00;61.90
47590;DHT22;33316;52.298;9.056;2022-08-19T09:09:42;24.00;61.80
47590;DHT22;33316;52.298;9.056;2022-08-19T09:15:11;24.10;61.90
47590;DHT22;33316;52.298;9.056;2022-08-19T09:17:38;24.10;61.00
47590;DHT22;33316;52.298;9.056;2022-08-19T09:22:40;24.00;60.00
47590;DHT22;33316;52.298;9.056;2022-08-19T09:25:11;24.00;59.80
47590;DHT22;33316;52.298;9.056;2022-08-19T09:27:39;23.90;60.10
47590;DHT22;33316;52.298;9.056;2022-08-19T09:30:07;24.00;60.10
47590;DHT22;33316;52.298;9.056;2022-08-19T09:32:33;24.00;59.90
47590;DHT22;33316;52.298;9.056;2022-08-19T09:34:59;24.00;59.40
47590;DHT22;33316;52.298;9.056;2022-08-19T09:37:26;24.00;59.30
47590;DHT22;33316;52.298;9.056;2022-08-19T09:39:52;24.10;59.40
47590;DHT22;33316;52.298;9.056;2022-08-19T09:42:18;24.20;59.30
47590;DHT22;33316;52.298;9.056;2022-08-19T09:44:44;24.30;57.90
47590;DHT22;33316;52.298;9.056;2022-08-19T09:47:11;24.30;58.00
47590;DHT22;33316;52.298;9.056;2022-08-19T09:49:38;24.40;58.20
47590;DHT22;33316;52.298;9.056;2022-08-19T09:52:05;24.50;58.10
47590;DHT22;33316;52.298;9.056;2022-08-19T09:54:31;24.60;57.70
47590;DHT22;33316;52.298;9.056;2022-08-19T09:56:58;24.60;57.20
47590;DHT22;33316;52.298;9.056;2022-08-19T09:59:26;24.70;57.40
47590;DHT22;33316;52.298;9.056;2022-08-19T10:01:52;24.70;56.60
47590;DHT22;33316;52.298;9.056;2022-08-19T10:04:17;24.80;56.90
47590;DHT22;33316;52.298;9.056;2022-08-19T10:06:43;24.80;57.00
47590;DHT22;33316;52.298;9.056;2022-08-19T10:09:10;24.90;56.70
47590;DHT22;33316;52.298;9.056;2022-08-19T10:11:39;24.90;56.30
47590;DHT22;33316;52.298;9.056;2022-08-19T10:14:06;25.00;56.00
47590;DHT22;33316;52.298;9.056;2022-08-19T10:16:32;25.00;56.10
47590;DHT22;33316;52.298;9.056;2022-08-19T10:18:57;25.10;56.30
47590;DHT22;33316;52.298;9.056;2022-08-19T10:21:26;25.10;55.90
47590;DHT22;33316;52.298;9.056;2022-08-19T10:23:54;25.10;56.10
47590;DHT22;33316;52.298;9.056;2022-08-19T10:26:25;25.10;55.50
47590;DHT22;33316;52.298;9.056;2022-08-19T10:28:52;25.20;55.70
47590;DHT22;33316;52.298;9.056;2022-08-19T10:31:20;25.30;55.80
47590;DHT22;33316;52.298;9.056;2022-08-19T10:33:48;25.30;55.70
47590;DHT22;33316;52.298;9.056;2022-08-19T10:36:18;25.40;55.60
47590;DHT22;33316;52.298;9.056;2022-08-19T10:38:45;25.50;55.10
47590;DHT22;33316;52.298;9.056;2022-08-19T10:41:17;25.50;55.10
47590;DHT22;33316;52.298;9.056;2022-08-19T10:43:44;25.60;54.90
47590;DHT22;33316;52.298;9.056;2022-08-19T10:46:13;25.70;54.60
47590;DHT22;33316;52.298;9.056;2022-08-19T10:48:39;25.70;55.30
47590;DHT22;33316;52.298;9.056;2022-08-19T10:51:05;25.80;54.60
47590;DHT22;33316;52.298;9.056;2022-08-19T10:53:51;25.90;54.40
47590;DHT22;33316;52.298;9.056;2022-08-19T10:56:17;25.90;53.20
47590;DHT22;33316;52.298;9.056;2022-08-19T10:59:01;25.90;53.30
47590;DHT22;33316;52.298;9.056;2022-08-19T11:01:29;26.00;53.80
47590;DHT22;33316;52.298;9.056;2022-08-19T11:03:56;26.00;53.60
47590;DHT22;33316;52.298;9.056;2022-08-19T11:06:23;26.10;53.30
47590;DHT22;33316;52.298;9.056;2022-08-19T11:08:51;26.10;53.00
47590;DHT22;33316;52.298;9.056;2022-08-19T11:11:17;26.20;52.60
47590;DHT22;33316;52.298;9.056;2022-08-19T11:13:43;26.20;52.10
47590;DHT22;33316;52.298;9.056;2022-08-19T11:16:20;26.30;52.30
47590;DHT22;33316;52.298;9.056;2022-08-19T11:18:49;26.30;51.60
47590;DHT22;33316;52.298;9.056;2022-08-19T11:21:22;26.30;51.90
47590;DHT22;33316;52.298;9.056;2022-08-19T11:23:51;26.40;50.90
47590;DHT22;33316;52.298;9.056;2022-08-19T11:26:18;26.50;50.80
47590;DHT22;33316;52.298;9.056;2022-08-19T11:28:45;26.50;50.30
47590;DHT22;33316;52.298;9.056;2022-08-19T11:31:16;26.60;50.10
47590;DHT22;33316;52.298;9.056;2022-08-19T11:33:43;26.60;49.70
47590;DHT22;33316;52.298;9.056;2022-08-19T11:36:09;26.70;49.90
47590;DHT22;33316;52.298;9.056;2022-08-19T11:38:36;26.70;49.30
47590;DHT22;33316;52.298;9.056;2022-08-19T11:41:05;26.80;49.50
47590;DHT22;33316;52.298;9.056;2022-08-19T11:43:31;26.80;49.30
47590;DHT22;33316;52.298;9.056;2022-08-19T11:45:57;26.80;49.70
47590;DHT22;33316;52.298;9.056;2022-08-19T11:48:24;26.90;49.80
47590;DHT22;33316;52.298;9.056;2022-08-19T11:50:52;26.90;49.60
47590;DHT22;33316;52.298;9.056;2022-08-19T11:53:18;26.90;49.30
47590;DHT22;33316;52.298;9.056;2022-08-19T11:55:46;26.90;49.50
47590;DHT22;33316;52.298;9.056;2022-08-19T11:58:13;27.00;49.40
47590;DHT22;33316;52.298;9.056;2022-08-19T12:00:41;27.00;49.20
47590;DHT22;33316;52.298;9.056;2022-08-19T12:03:07;27.10;49.50
47590;DHT22;33316;52.298;9.056;2022-08-19T12:05:36;27.10;48.70
47590;DHT22;33316;52.298;9.056;2022-08-19T12:08:01;27.10;48.00
47590;DHT22;33316;52.298;9.056;2022-08-19T12:10:27;27.10;48.30
47590;DHT22;33316;52.298;9.056;2022-08-19T12:12:52;27.20;48.50
47590;DHT22;33316;52.298;9.056;2022-08-19T12:15:18;27.20;48.10
47590;DHT22;33316;52.298;9.056;2022-08-19T12:17:44;27.30;48.00
47590;DHT22;33316;52.298;9.056;2022-08-19T12:20:10;27.30;48.00
47590;DHT22;33316;52.298;9.056;2022-08-19T12:22:37;27.40;48.00
47590;DHT22;33316;52.298;9.056;2022-08-19T12:25:04;27.40;48.10
47590;DHT22;33316;52.298;9.056;2022-08-19T12:27:30;27.50;47.60
47590;DHT22;33316;52.298;9.056;2022-08-19T12:29:56;27.50;47.90
47590;DHT22;33316;52.298;9.056;2022-08-19T12:32:22;27.60;47.70
47590;DHT22;33316;52.298;9.056;2022-08-19T12:34:50;27.60;47.80
47590;DHT22;33316;52.298;9.056;2022-08-19T12:37:15;27.70;47.50
47590;DHT22;33316;52.298;9.056;2022-08-19T12:39:42;27.70;47.60
47590;DHT22;33316;52.298;9.056;2022-08-19T12:42:09;27.70;47.60
47590;DHT22;33316;52.298;9.056;2022-08-19T12:44:36;27.80;46.90
47590;DHT22;33316;52.298;9.056;2022-08-19T12:47:02;27.80;46.10
47590;DHT22;33316;52.298;9.056;2022-08-19T12:49:30;27.80;45.40
47590;DHT22;33316;52.298;9.056;2022-08-19T12:51:57;27.80;45.90
47590;DHT22;33316;52.298;9.056;2022-08-19T12:54:23;27.80;46.30
47590;DHT22;33316;52.298;9.056;2022-08-19T12:56:49;27.80;46.00
47590;DHT22;33316;52.298;9.056;2022-08-19T12:59:14;27.80;45.40
47590;DHT22;33316;52.298;9.056;2022-08-19T13:01:43;27.90;46.10
47590;DHT22;33316;52.298;9.056;2022-08-19T13:04:09;27.90;46.20
47590;DHT22;33316;52.298;9.056;2022-08-19T13:06:35;27.90;45.70
47590;DHT22;33316;52.298;9.056;2022-08-19T13:09:01;27.90;45.20
47590;DHT22;33316;52.298;9.056;2022-08-19T13:11:27;27.90;45.50
47590;DHT22;33316;52.298;9.056;2022-08-19T13:13:57;28.00;45.70
47590;DHT22;33316;52.298;9.056;2022-08-19T13:16:24;28.00;45.80
47590;DHT22;33316;52.298;9.056;2022-08-19T13:18:49;28.00;45.80
47590;DHT22;33316;52.298;9.056;2022-08-19T13:21:18;28.00;45.70
47590;DHT22;33316;52.298;9.056;2022-08-19T13:23:45;28.10;45.00
47590;DHT22;33316;52.298;9.056;2022-08-19T13:26:12;28.10;44.40
47590;DHT22;33316;52.298;9.056;2022-08-19T13:28:39;28.10;44.80
47590;DHT22;33316;52.298;9.056;2022-08-19T13:31:25;28.10;45.00
47590;DHT22;33316;52.298;9.056;2022-08-19T13:34:10;28.20;45.30
47590;DHT22;33316;52.298;9.056;2022-08-19T13:36:36;28.20;45.30
47590;DHT22;33316;52.298;9.056;2022-08-19T13:39:03;28.20;46.00
47590;DHT22;33316;52.298;9.056;2022-08-19T13:41:29;28.20;44.70
47590;DHT22;33316;52.298;9.056;2022-08-19T13:43:54;28.20;44.00
47590;DHT22;33316;52.298;9.056;2022-08-19T13:46:20;28.20;44.30
47590;DHT22;33316;52.298;9.056;2022-08-19T13:48:46;28.20;44.60
47590;DHT22;33316;52.298;9.056;2022-08-19T13:51:13;28.10;44.60
47590;DHT22;33316;52.298;9.056;2022-08-19T13:53:39;28.20;45.30
47590;DHT22;33316;52.298;9.056;2022-08-19T13:56:09;28.20;45.50
47590;DHT22;33316;52.298;9.056;2022-08-19T13:58:35;28.30;45.50
47590;DHT22;33316;52.298;9.056;2022-08-19T14:01:01;28.30;45.70
47590;DHT22;33316;52.298;9.056;2022-08-19T14:03:27;28.30;45.70
47590;DHT22;33316;52.298;9.056;2022-08-19T14:05:52;28.30;45.40
47590;DHT22;33316;52.298;9.056;2022-08-19T14:08:18;28.40;45.20
47590;DHT22;33316;52.298;9.056;2022-08-19T14:10:44;28.40;45.40
47590;DHT22;33316;52.298;9.056;2022-08-19T14:13:13;28.50;45.30
47590;DHT22;33316;52.298;9.056;2022-08-19T14:15:39;28.40;44.80
47590;DHT22;33316;52.298;9.056;2022-08-19T14:18:05;28.40;45.00
47590;DHT22;33316;52.298;9.056;2022-08-19T14:20:34;28.50;44.30
47590;DHT22;33316;52.298;9.056;2022-08-19T14:23:00;28.50;44.70
47590;DHT22;33316;52.298;9.056;2022-08-19T14:25:28;28.50;44.80
47590;DHT22;33316;52.298;9.056;2022-08-19T14:27:54;28.50;44.90
47590;DHT22;33316;52.298;9.056;2022-08-19T14:30:24;28.60;44.00
47590;DHT22;33316;52.298;9.056;2022-08-19T14:32:52;28.50;43.40
47590;DHT22;33316;52.298;9.056;2022-08-19T14:35:18;28.50;43.20
47590;DHT22;33316;52.298;9.056;2022-08-19T14:37:44;28.40;43.80
47590;DHT22;33316;52.298;9.056;2022-08-19T14:40:11;28.50;43.20
47590;DHT22;33316;52.298;9.056;2022-08-19T14:42:37;28.40;43.40
47590;DHT22;33316;52.298;9.056;2022-08-19T14:45:03;28.50;43.50
47590;DHT22;33316;52.298;9.056;2022-08-19T14:47:30;28.50;43.30
47590;DHT22;33316;52.298;9.056;2022-08-19T14:49:56;28.50;43.70
47590;DHT22;33316;52.298;9.056;2022-08-19T14:52:22;28.50;42.80
47590;DHT22;33316;52.298;9.056;2022-08-19T14:54:48;28.50;42.80
47590;DHT22;33316;52.298;9.056;2022-08-19T14:57:14;28.50;43.30
47590;DHT22;33316;52.298;9.056;2022-08-19T14:59:43;28.50;43.40
47590;DHT22;33316;52.298;9.056;2022-08-19T15:02:10;28.50;43.70
47590;DHT22;33316;52.298;9.056;2022-08-19T15:04:39;28.50;43.60
47590;DHT22;33316;52.298;9.056;2022-08-19T15:07:04;28.60;43.20
47590;DHT22;33316;52.298;9.056;2022-08-19T15:09:31;28.50;43.30
47590;DHT22;33316;52.298;9.056;2022-08-19T15:11:57;28.60;43.40
47590;DHT22;33316;52.298;9.056;2022-08-19T15:14:27;28.50;43.40
47590;DHT22;33316;52.298;9.056;2022-08-19T15:16:53;28.60;43.60
47590;DHT22;33316;52.298;9.056;2022-08-19T15:19:19;28.60;43.60
47590;DHT22;33316;52.298;9.056;2022-08-19T15:21:45;28.60;42.70
47590;DHT22;33316;52.298;9.056;2022-08-19T15:24:10;28.50;42.50
47590;DHT22;33316;52.298;9.056;2022-08-19T15:26:36;28.50;42.80
47590;DHT22;33316;52.298;9.056;2022-08-19T15:29:03;28.50;43.20
47590;DHT22;33316;52.298;9.056;2022-08-19T15:31:30;28.50;43.40
47590;DHT22;33316;52.298;9.056;2022-08-19T15:34:01;28.50;43.50
47590;DHT22;33316;52.298;9.056;2022-08-19T15:36:27;28.50;43.30
47590;DHT22;33316;52.298;9.056;2022-08-19T15:38:54;28.50;43.30
47590;DHT22;33316;52.298;9.056;2022-08-19T15:41:23;28.50;43.20
47590;DHT22;33316;52.298;9.056;2022-08-19T15:43:54;28.60;43.40
47590;DHT22;33316;52.298;9.056;2022-08-19T15:46:22;28.60;43.30